Time;durP1;ratioP1;P1;durP2;ratioP2;P2;SDS_P1;SDS_P2;PMS_P1;PMS_P2;Temp;Humidity;BMP_temperature;BMP_pressure;BME280_temperature;BME280_humidity;BME280_pressure;Samples;Min_cycle;Max_cycle;Signal;HPM_P1;HPM_P2
2021/07/26 06:42:52;;;;;;;10.50;4.78;;;;;;;21.91;63.68;98191.26;1859768;76;22489;-70
2021/07/26 06:45:20;;;;;;;7.45;4.75;;;;;;;21.87;63.76;98184.16;1825280;78;21210;-63
2021/07/26 06:47:49;;;;;;;11.50;4.67;;;;;;;21.91;63.28;98186.37;1825949;78;21077;-64
2021/07/26 06:50:15;;;;;;;7.65;4.50;;;;;;;21.97;63.38;98178.93;1821010;78;20895;-69
2021/07/26 06:52:42;;;;;;;6.55;4.80;;;;;;;22.11;63.38;98175.68;1821086;78;20918;-66
2021/07/26 06:55:10;;;;;;;6.75;4.40;;;;;;;22.25;63.61;98178.67;1821188;78;20943;-63
2021/07/26 06:57:37;;;;;;;12.53;4.72;;;;;;;22.39;62.53;98177.00;1821104;78;20899;-65
2021/07/26 07:00:05;;;;;;;10.03;4.50;;;;;;;22.56;61.94;98175.73;1823276;77;21091;-61
2021/07/26 07:02:35;;;;;;;11.43;4.53;;;;;;;22.74;61.74;98174.12;1847011;77;20919;-67
2021/07/26 07:05:02;;;;;;;9.40;4.30;;;;;;;22.93;61.20;98182.23;1824151;78;20891;-67
2021/07/26 07:07:30;;;;;;;8.25;4.35;;;;;;;23.03;60.59;98172.03;1821137;78;20902;-65
2021/07/26 07:10:07;;;;;;;8.88;4.33;;;;;;;23.11;59.22;98170.20;1821095;78;20906;-65
2021/07/26 07:12:34;;;;;;;8.43;4.05;;;;;;;23.16;58.86;98168.52;1821146;78;21533;-67
2021/07/26 07:15:02;;;;;;;9.70;4.45;;;;;;;23.19;59.02;98172.46;1821089;78;21421;-66
2021/07/26 07:17:29;;;;;;;8.10;4.28;;;;;;;23.24;58.78;98183.08;1821196;78;20891;-61
2021/07/26 07:20:04;;;;;;;21.00;4.65;;;;;;;23.32;59.16;98183.41;1823952;77;20946;-63
2021/07/26 07:22:31;;;;;;;8.85;4.42;;;;;;;23.46;59.16;98189.87;1843384;77;20876;-68
2021/07/26 07:24:57;;;;;;;10.68;4.45;;;;;;;23.62;58.88;98188.34;1837442;77;21517;-66
2021/07/26 07:27:24;;;;;;;6.28;4.50;;;;;;;23.79;58.19;98197.33;1823650;78;20926;-62
2021/07/26 07:29:53;;;;;;;12.30;4.50;;;;;;;23.88;57.42;98191.02;1822999;78;21000;-62
2021/07/26 07:32:20;;;;;;;7.70;4.05;;;;;;;23.94;57.55;98194.99;1823468;78;21374;-64
2021/07/26 07:34:47;;;;;;;7.55;4.30;;;;;;;24.00;56.91;98199.56;1826119;78;20966;-64
2021/07/26 07:37:15;;;;;;;6.53;4.00;;;;;;;24.01;57.29;98195.08;1826078;78;21066;-66
2021/07/26 07:39:43;;;;;;;9.25;4.08;;;;;;;24.04;57.10;98198.44;1825056;77;20956;-61
2021/07/26 07:42:12;;;;;;;7.17;4.28;;;;;;;24.11;57.57;98205.39;1824043;78;21431;-61
2021/07/26 07:44:38;;;;;;;9.00;4.03;;;;;;;24.24;57.60;98205.91;1810175;77;21461;-62
2021/07/26 07:47:11;;;;;;;16.27;4.37;;;;;;;24.33;56.86;98207.19;1806364;77;21124;-60
2021/07/26 07:49:37;;;;;;;10.48;4.33;;;;;;;24.36;57.04;98198.81;1817752;77;21137;-69
2021/07/26 07:52:04;;;;;;;10.03;4.12;;;;;;;24.37;56.58;98205.30;1812256;77;21035;-66
2021/07/26 07:54:32;;;;;;;10.65;4.12;;;;;;;24.36;56.62;98198.23;1812204;78;21019;-60
2021/07/26 07:56:59;;;;;;;5.70;4.03;;;;;;;24.43;57.00;98206.52;1822533;77;21525;-63
2021/07/26 07:59:25;;;;;;;6.53;3.95;;;;;;;24.52;56.57;98216.39;1834560;77;21037;-62
2021/07/26 08:01:52;;;;;;;6.53;4.30;;;;;;;24.63;56.37;98227.66;1818078;77;21736;-61
2021/07/26 08:04:19;;;;;;;6.45;4.22;;;;;;;24.76;56.44;98239.10;1820264;78;20852;-62
2021/07/26 08:06:50;;;;;;;9.28;4.25;;;;;;;24.89;56.24;98235.75;1817965;78;21107;-71
2021/07/26 08:09:20;;;;;;;9.25;3.90;;;;;;;25.02;55.75;98227.44;1816705;78;21618;-62
2021/07/26 08:11:48;;;;;;;6.55;4.15;;;;;;;25.20;55.88;98219.38;1818884;78;21077;-58
2021/07/26 08:14:16;;;;;;;7.92;4.08;;;;;;;25.40;56.49;98227.53;1818429;78;21999;-63
2021/07/26 08:16:43;;;;;;;7.17;3.98;;;;;;;25.58;55.60;98231.19;1806941;77;21069;-61
2021/07/26 08:19:11;;;;;;;6.75;3.83;;;;;;;25.72;55.34;98224.41;1814286;78;21081;-60
2021/07/26 08:21:38;;;;;;;4.50;4.10;;;;;;;25.83;54.55;98213.51;1800801;77;20923;-62
2021/07/26 08:24:06;;;;;;;6.08;4.40;;;;;;;25.91;54.41;98215.70;1789264;80;20895;-61
2021/07/26 08:26:34;;;;;;;6.00;4.25;;;;;;;26.01;53.85;98212.98;1814582;77;21346;-63
2021/07/26 08:29:01;;;;;;;7.35;4.25;;;;;;;26.08;53.75;98213.59;1829412;77;20855;-60
2021/07/26 08:31:27;;;;;;;9.93;4.60;;;;;;;26.11;53.48;98219.14;1812604;77;21000;-61
2021/07/26 08:33:54;;;;;;;5.35;4.15;;;;;;;26.13;53.51;98220.91;1837637;77;20924;-61
2021/07/26 08:36:31;;;;;;;8.70;4.20;;;;;;;26.04;53.51;98214.18;1842592;77;20915;-61
2021/07/26 08:38:59;;;;;;;6.70;4.35;;;;;;;26.04;53.51;98214.18;1849841;77;21914;-62
2021/07/26 08:41:26;;;;;;;7.45;4.28;;;;;;;26.02;54.00;98220.06;1848883;77;20956;-63
2021/07/26 08:43:54;;;;;;;9.65;4.60;;;;;;;26.02;53.67;98223.39;1823280;77;20979;-63
2021/07/26 08:46:21;;;;;;;10.28;4.65;;;;;;;26.02;53.88;98219.27;1795048;77;21047;-64
2021/07/26 08:48:48;;;;;;;7.53;4.58;;;;;;;26.02;53.88;98219.27;1764714;81;21068;-63
2021/07/26 08:51:18;;;;;;;11.75;4.37;;;;;;;26.16;53.96;98212.49;1795710;79;21081;-60
2021/07/26 08:53:47;;;;;;;7.15;4.03;;;;;;;26.16;53.96;98212.49;1749503;82;21647;-66
2021/07/26 08:56:17;;;;;;;10.50;4.75;;;;;;;26.22;53.66;98204.06;1748773;81;21576;-62
2021/07/26 08:58:44;;;;;;;5.87;4.42;;;;;;;26.30;53.26;98198.80;1754922;80;21085;-59
2021/07/26 09:01:13;;;;;;;14.05;4.87;;;;;;;26.37;52.97;98185.89;1778179;79;20935;-63
2021/07/26 09:03:41;;;;;;;10.78;4.60;;;;;;;26.45;52.95;98181.96;1782916;80;21114;-59
2021/07/26 09:06:15;;;;;;;9.10;4.40;;;;;;;26.47;52.53;98178.84;1783129;79;20962;-62
2021/07/26 09:08:43;;;;;;;10.88;4.72;;;;;;;26.45;52.67;98175.67;1760202;80;21533;-60
2021/07/26 09:11:09;;;;;;;10.55;4.10;;;;;;;26.45;53.36;98172.93;1751121;82;21074;-62
2021/07/26 09:13:39;;;;;;;12.10;5.45;;;;;;;26.45;53.36;98172.93;1751113;82;21002;-64
2021/07/26 09:16:21;;;;;;;10.30;5.20;;;;;;;26.45;53.88;98178.42;1760294;79;21079;-65
2021/07/26 09:19:03;;;;;;;6.72;4.15;;;;;;;26.48;53.02;98174.91;1769701;80;20843;-61
2021/07/26 09:21:50;;;;;;;8.85;4.42;;;;;;;26.52;52.90;98172.94;1749252;82;21057;-61
2021/07/26 09:24:27;;;;;;;13.93;4.40;;;;;;;26.55;53.00;98176.29;1746704;82;20958;-65
2021/07/26 09:27:11;;;;;;;10.10;4.40;;;;;;;26.58;53.04;98178.27;1750987;82;20883;-58
2021/07/26 09:29:38;;;;;;;10.10;4.20;;;;;;;26.65;53.02;98186.52;1777557;80;21052;-58
2021/07/26 09:32:05;;;;;;;10.03;5.22;;;;;;;26.69;53.30;98183.75;1781222;80;21058;-59
2021/07/26 09:34:36;;;;;;;7.10;5.62;;;;;;;26.73;53.35;98181.23;1785334;79;21072;-58
2021/07/26 09:37:17;;;;;;;10.63;5.33;;;;;;;26.85;53.72;98182.22;1801667;79;21015;-63
2021/07/26 09:39:44;;;;;;;8.93;4.37;;;;;;;26.97;53.37;98180.45;1756367;80;21017;-59
2021/07/26 09:42:26;;;;;;;8.98;4.80;;;;;;;27.13;53.40;98167.09;1751043;82;21069;-60
2021/07/26 09:44:53;;;;;;;7.50;4.65;;;;;;;27.33;53.11;98170.20;1789393;80;20907;-61
2021/07/26 09:47:21;;;;;;;14.70;4.40;;;;;;;27.50;53.15;98167.25;1789743;80;21384;-65
2021/07/26 09:49:49;;;;;;;9.70;4.45;;;;;;;27.62;52.54;98162.70;1749534;82;20895;-68
2021/07/26 09:52:21;;;;;;;8.40;4.22;;;;;;;27.65;52.19;98166.80;1762325;80;20986;-63
2021/07/26 09:54:46;;;;;;;12.85;4.60;;;;;;;27.63;52.28;98173.30;1822412;78;21096;-65
2021/07/26 09:57:23;;;;;;;6.70;4.15;;;;;;;27.58;52.42;98174.31;1801020;78;21453;-65
2021/07/26 09:59:51;;;;;;;7.37;4.37;;;;;;;27.53;52.43;98172.77;1789570;80;20872;-60
2021/07/26 10:02:20;;;;;;;8.35;4.33;;;;;;;27.56;51.86;98161.52;1749472;82;21007;-61
2021/07/26 10:04:48;;;;;;;8.68;4.35;;;;;;;27.65;51.44;98168.17;1789741;80;20987;-65
2021/07/26 10:07:18;;;;;;;7.50;4.47;;;;;;;27.79;51.37;98161.86;1749519;81;21116;-69
2021/07/26 10:09:46;;;;;;;8.30;4.30;;;;;;;28.00;51.69;98160.42;1749656;82;21482;-66
2021/07/26 10:12:18;;;;;;;5.92;3.92;;;;;;;28.19;50.76;98161.27;1748443;82;21001;-61
2021/07/26 10:14:46;;;;;;;9.15;4.05;;;;;;;28.24;50.71;98166.36;1748417;82;21516;-61
2021/07/26 10:17:16;;;;;;;7.83;3.80;;;;;;;28.24;50.52;98164.98;1788449;80;21094;-63
2021/07/26 10:19:43;;;;;;;9.40;4.40;;;;;;;28.20;50.90;98165.61;1788463;79;21121;-63
2021/07/26 10:22:13;;;;;;;6.05;4.22;;;;;;;28.17;50.48;98165.03;1788489;79;21090;-63
2021/07/26 10:25:00;;;;;;;10.15;4.30;;;;;;;28.12;50.45;98166.06;1720543;82;21553;-60
2021/07/26 10:27:31;;;;;;;7.97;4.40;;;;;;;28.04;50.36;98168.06;1749250;82;20879;-69
2021/07/26 10:29:59;;;;;;;8.75;4.15;;;;;;;27.95;50.39;98164.94;1749568;82;20840;-66
2021/07/26 10:32:38;;;;;;;6.53;3.80;;;;;;;27.89;50.46;98166.52;1749493;82;21115;-67
2021/07/26 10:35:16;;;;;;;6.90;3.92;;;;;;;27.84;50.83;98162.80;1789488;80;20928;-64
2021/07/26 10:37:49;;;;;;;8.85;3.95;;;;;;;27.83;51.19;98166.75;1748103;80;21320;-65
2021/07/26 10:40:30;;;;;;;5.00;3.77;;;;;;;27.83;51.04;98162.63;1751404;80;21013;-70
2021/07/26 10:43:03;;;;;;;7.95;4.30;;;;;;;27.82;51.13;98161.04;1791883;79;21018;-67
2021/07/26 10:45:38;;;;;;;8.58;4.70;;;;;;;27.84;50.95;98164.17;1794804;79;21110;-61
2021/07/26 10:48:30;;;;;;;8.45;4.08;;;;;;;27.87;51.31;98157.09;1757248;81;20946;-65
2021/07/26 10:51:00;;;;;;;11.00;4.62;;;;;;;27.97;51.24;98162.56;1757303;81;21401;-68
2021/07/26 10:53:41;;;;;;;7.00;4.42;;;;;;;28.08;51.20;98168.81;1757447;81;20943;-69
2021/07/26 10:56:11;;;;;;;11.25;4.10;;;;;;;28.20;51.29;98166.20;1757394;81;21046;-62
2021/07/26 10:58:58;;;;;;;8.78;4.30;;;;;;;28.34;50.68;98164.73;1757617;81;21103;-71
2021/07/26 11:01:31;;;;;;;11.65;4.28;;;;;;;28.51;49.95;98167.19;1761938;80;21418;-68
2021/07/26 11:03:58;;;;;;;4.95;4.17;;;;;;;28.62;49.94;98161.06;1778395;80;20971;-67
2021/07/26 11:06:40;;;;;;;6.90;4.67;;;;;;;28.73;49.41;98165.88;1787522;80;21022;-62
2021/07/26 11:09:32;;;;;;;6.53;4.42;;;;;;;28.78;48.37;98158.56;1787573;80;21477;-72
2021/07/26 11:11:56;;;;;;;10.38;4.42;;;;;;;28.82;48.79;98164.83;1787355;80;21914;-70
2021/07/26 11:14:24;;;;;;;9.68;4.30;;;;;;;28.84;48.92;98156.92;1759468;80;21093;-60
2021/07/26 11:17:02;;;;;;;9.95;4.62;;;;;;;28.85;48.09;98159.27;1758796;80;21011;-68
2021/07/26 11:19:49;;;;;;;5.50;4.00;;;;;;;28.85;48.13;98161.27;1787407;80;21025;-69
2021/07/26 11:22:21;;;;;;;5.08;4.20;;;;;;;28.85;48.18;98161.27;1787184;80;20978;-66
2021/07/26 11:24:54;;;;;;;8.68;4.80;;;;;;;28.85;48.68;98158.50;1790023;78;21093;-62
2021/07/26 11:27:35;;;;;;;7.08;4.42;;;;;;;28.87;48.57;98169.31;1790456;78;20903;-61
2021/07/26 11:30:04;;;;;;;9.23;4.80;;;;;;;28.92;48.01;98163.96;1741140;82;21396;-62
2021/07/26 11:32:32;;;;;;;9.00;5.10;;;;;;;28.98;47.10;98162.32;1741200;81;21479;-62
2021/07/26 11:35:00;;;;;;;8.45;4.87;;;;;;;29.08;46.06;98162.83;1740930;82;21024;-69
2021/07/26 11:37:33;;;;;;;9.10;4.62;;;;;;;29.16;44.30;98168.44;1763202;80;21196;-70
2021/07/26 11:40:08;;;;;;;9.13;4.70;;;;;;;29.28;45.24;98169.97;1779171;80;21564;-63
2021/07/26 11:42:39;;;;;;;11.53;4.58;;;;;;;29.41;44.87;98164.89;1764975;79;20971;-61
2021/07/26 11:45:12;;;;;;;9.28;4.70;;;;;;;29.57;43.63;98166.48;1753886;80;21073;-64
2021/07/26 11:47:44;;;;;;;8.05;4.67;;;;;;;29.68;43.21;98150.58;1767010;80;21522;-61
2021/07/26 11:50:13;;;;;;;7.78;4.42;;;;;;;29.78;43.78;98153.84;1742061;80;21099;-64
2021/07/26 11:52:54;;;;;;;6.60;4.20;;;;;;;29.89;42.26;98151.56;1774414;80;21417;-69
2021/07/26 11:55:23;;;;;;;7.00;4.25;;;;;;;29.93;42.01;98141.24;1775928;80;20957;-67
2021/07/26 11:58:10;;;;;;;7.78;4.40;;;;;;;29.99;41.47;98141.74;1765832;81;20940;-66
2021/07/26 12:00:44;;;;;;;9.75;4.40;;;;;;;30.01;40.98;98142.70;1765325;80;21451;-65
2021/07/26 12:03:12;;;;;;;9.63;4.47;;;;;;;29.97;40.86;98146.11;1787999;80;21095;-66
2021/07/26 12:05:39;;;;;;;6.80;4.83;;;;;;;30.01;40.70;98148.22;1759930;80;20896;-66
2021/07/26 12:08:14;;;;;;;10.58;4.37;;;;;;;30.11;41.01;98141.78;1789993;80;20951;-66
2021/07/26 12:10:41;;;;;;;6.47;4.05;;;;;;;30.21;40.61;98146.38;1764104;80;20940;-62
2021/07/26 12:13:18;;;;;;;6.60;4.55;;;;;;;30.33;40.96;98144.47;1767163;80;20882;-65
2021/07/26 12:15:47;;;;;;;8.35;4.45;;;;;;;30.50;40.09;98136.52;1765947;80;21436;-65
2021/07/26 12:18:16;;;;;;;6.40;4.28;;;;;;;30.58;40.28;98134.40;1765921;81;20936;-62
2021/07/26 12:20:59;;;;;;;4.75;4.00;;;;;;;30.70;39.62;98129.08;1765919;80;21004;-65
2021/07/26 12:23:29;;;;;;;8.13;4.22;;;;;;;30.69;40.03;98128.88;1788862;80;20986;-68
2021/07/26 12:26:08;;;;;;;10.10;4.60;;;;;;;30.75;40.48;98130.58;1789268;80;20938;-66
2021/07/26 12:28:50;;;;;;;5.75;4.05;;;;;;;30.88;40.67;98129.58;1786120;80;21731;-68
2021/07/26 12:31:32;;;;;;;6.58;4.62;;;;;;;31.15;40.16;98128.72;1789685;80;21572;-66
2021/07/26 12:34:14;;;;;;;5.30;4.10;;;;;;;31.37;38.21;98124.37;1745126;80;20877;-65
2021/07/26 12:36:42;;;;;;;8.85;4.35;;;;;;;31.38;38.68;98127.30;1766100;80;20944;-67
2021/07/26 12:39:09;;;;;;;6.95;3.98;;;;;;;31.29;39.68;98122.33;1756881;80;20936;-67
2021/07/26 12:41:36;;;;;;;11.18;4.20;;;;;;;31.17;39.95;98123.55;1752030;81;21174;-60
2021/07/26 12:44:18;;;;;;;5.05;4.20;;;;;;;30.97;39.88;98117.37;1765893;81;20889;-61
2021/07/26 12:46:53;;;;;;;6.05;4.20;;;;;;;30.84;40.51;98115.02;1735668;82;20952;-65
2021/07/26 12:49:21;;;;;;;15.80;5.12;;;;;;;30.63;41.37;98118.13;1761351;80;20931;-62
2021/07/26 12:51:50;;;;;;;8.18;4.53;;;;;;;30.48;41.09;98116.78;1765376;80;21529;-63
2021/07/26 12:54:17;;;;;;;6.75;4.30;;;;;;;30.35;41.44;98117.20;1780215;80;21713;-66
2021/07/26 12:56:45;;;;;;;9.43;4.47;;;;;;;30.26;41.66;98122.44;1781759;80;21018;-70
2021/07/26 12:59:12;;;;;;;10.25;4.25;;;;;;;30.26;41.13;98115.53;1781732;80;21431;-64
2021/07/26 13:01:39;;;;;;;10.00;4.30;;;;;;;30.22;40.37;98115.57;1778828;80;21076;-64
2021/07/26 13:04:09;;;;;;;8.93;4.33;;;;;;;30.08;40.58;98120.51;1786237;80;21148;-62
2021/07/26 13:06:36;;;;;;;9.68;4.15;;;;;;;29.92;41.09;98117.58;1789547;80;21084;-62
2021/07/26 13:09:05;;;;;;;8.28;3.98;;;;;;;29.93;41.79;98117.18;1772577;80;21907;-62
2021/07/26 13:11:32;;;;;;;10.00;3.92;;;;;;;29.99;40.85;98116.89;1760625;80;21012;-64
2021/07/26 13:13:59;;;;;;;8.20;3.90;;;;;;;29.93;40.91;98120.53;1755164;81;21243;-68
2021/07/26 13:16:29;;;;;;;6.22;3.90;;;;;;;29.73;41.69;98112.86;1741063;81;21079;-68
2021/07/26 13:18:56;;;;;;;9.45;4.20;;;;;;;29.61;42.61;98117.55;1748503;80;21119;-70
2021/07/26 13:21:22;;;;;;;7.87;4.10;;;;;;;29.54;43.31;98114.88;1781630;80;20844;-63
2021/07/26 13:23:49;;;;;;;9.65;4.30;;;;;;;29.52;43.72;98117.86;1781980;80;21494;-68
2021/07/26 13:26:16;;;;;;;4.62;3.65;;;;;;;29.42;43.35;98120.16;1760662;80;20959;-66
2021/07/26 13:28:43;;;;;;;7.83;4.03;;;;;;;29.28;43.54;98122.45;1780782;80;20970;-62
2021/07/26 13:31:11;;;;;;;11.75;4.17;;;;;;;29.14;43.92;98122.57;1747674;81;21112;-63
2021/07/26 13:33:37;;;;;;;9.75;4.20;;;;;;;29.13;44.38;98125.16;1759087;80;21518;-61
2021/07/26 13:36:06;;;;;;;9.25;3.80;;;;;;;29.18;45.01;98121.17;1753570;81;21055;-63
2021/07/26 13:38:32;;;;;;;11.63;4.40;;;;;;;29.46;44.28;98116.75;1770606;80;20962;-65
2021/07/26 13:40:59;;;;;;;7.72;3.80;;;;;;;29.62;44.52;98122.47;1768631;80;21110;-65
2021/07/26 13:43:26;;;;;;;6.10;4.05;;;;;;;29.74;43.64;98110.30;1789842;80;21098;-68
2021/07/26 13:45:54;;;;;;;7.55;3.98;;;;;;;29.77;43.44;98108.10;1781522;80;21364;-64
2021/07/26 13:48:20;;;;;;;8.88;3.92;;;;;;;29.69;43.47;98105.23;1766065;80;20913;-66
2021/07/26 13:50:48;;;;;;;7.50;4.10;;;;;;;29.49;44.10;98105.66;1757839;81;21068;-63
2021/07/26 13:53:14;;;;;;;11.50;4.15;;;;;;;29.29;44.92;98107.48;1742714;80;21075;-64
2021/07/26 13:55:42;;;;;;;7.95;3.75;;;;;;;29.12;45.57;98107.04;1768788;80;21131;-62
2021/07/26 13:58:08;;;;;;;11.53;4.35;;;;;;;28.91;46.41;98110.00;1813495;78;21066;-61
2021/07/26 14:00:35;;;;;;;9.60;4.05;;;;;;;28.72;46.88;98105.05;1813592;79;21019;-67
2021/07/26 14:03:02;;;;;;;7.53;4.10;;;;;;;28.59;47.39;98107.55;1814134;78;21054;-65
2021/07/26 14:05:29;;;;;;;9.33;4.42;;;;;;;28.46;47.95;98098.94;1801355;79;21015;-65
2021/07/26 14:07:56;;;;;;;8.60;3.95;;;;;;;28.39;48.19;98097.62;1813908;79;21113;-63
2021/07/26 14:10:23;;;;;;;12.45;4.22;;;;;;;28.38;48.39;98102.92;1814147;79;21501;-64
2021/07/26 14:12:49;;;;;;;17.87;4.58;;;;;;;28.42;48.43;98103.70;1814264;78;20951;-64
2021/07/26 14:15:16;;;;;;;9.33;4.28;;;;;;;28.51;48.19;98105.20;1814214;79;21055;-70
2021/07/26 14:17:43;;;;;;;9.85;4.37;;;;;;;28.52;48.05;98101.27;1814272;78;21051;-66
2021/07/26 14:20:12;;;;;;;14.55;4.45;;;;;;;28.48;47.88;98099.14;1815901;78;22038;-61
2021/07/26 14:22:38;;;;;;;11.85;4.47;;;;;;;28.41;47.98;98092.48;1816005;79;20947;-67
2021/07/26 14:25:07;;;;;;;8.75;4.10;;;;;;;28.36;47.90;98094.28;1815895;79;20910;-68
2021/07/26 14:27:37;;;;;;;8.80;3.72;;;;;;;28.32;47.69;98090.78;1816192;78;21497;-67
2021/07/26 14:30:06;;;;;;;6.95;4.40;;;;;;;28.40;47.57;98095.06;1816258;79;20896;-67
2021/07/26 14:32:32;;;;;;;13.58;4.22;;;;;;;28.71;47.18;98102.89;1815824;79;21416;-61
2021/07/26 14:34:59;;;;;;;8.08;4.62;;;;;;;28.93;46.15;98093.83;1815752;79;20880;-65
2021/07/26 14:37:26;;;;;;;7.50;5.05;;;;;;;29.21;45.24;98101.84;1816020;79;21323;-64
2021/07/26 14:39:53;;;;;;;8.55;4.15;;;;;;;29.39;45.10;98090.63;1815810;79;20904;-63
2021/07/26 14:42:19;;;;;;;8.05;4.33;;;;;;;29.52;45.02;98096.56;1815794;79;21041;-63
2021/07/26 14:44:47;;;;;;;13.40;4.28;;;;;;;29.51;44.88;98093.61;1824048;78;21100;-66
2021/07/26 14:47:13;;;;;;;10.80;4.28;;;;;;;29.48;44.78;98086.19;1827284;78;20857;-66
2021/07/26 14:49:40;;;;;;;10.15;3.85;;;;;;;29.43;44.30;98082.49;1827317;78;20856;-68
2021/07/26 14:52:10;;;;;;;13.00;4.25;;;;;;;29.31;44.21;98080.27;1827298;78;20928;-66
2021/07/26 14:54:37;;;;;;;8.85;3.83;;;;;;;29.18;44.80;98080.63;1827236;78;20888;-64
2021/07/26 14:57:06;;;;;;;14.25;4.60;;;;;;;29.08;45.21;98085.03;1827354;78;21158;-63
